sensor_id;sensor_type;location;lat;lon;timestamp;temperature;humidity
17236;DHT22;8734;59.272;17.780;2023-09-19T00:00:40;16.60;99.90
17236;DHT22;8734;59.272;17.780;2023-09-19T00:03:09;16.60;99.90
17236;DHT22;8734;59.272;17.780;2023-09-19T00:05:39;16.70;99.90
17236;DHT22;8734;59.272;17.780;2023-09-19T00:08:12;16.70;99.90
17236;DHT22;8734;59.272;17.780;2023-09-19T00:10:42;16.70;99.90
17236;DHT22;8734;59.272;17.780;2023-09-19T00:13:10;16.70;99.90
17236;DHT22;8734;59.272;17.780;2023-09-19T00:15:44;16.70;99.90
17236;DHT22;8734;59.272;17.780;2023-09-19T00:18:17;16.70;99.90
17236;DHT22;8734;59.272;17.780;2023-09-19T00:20:46;16.70;99.90
17236;DHT22;8734;59.272;17.780;2023-09-19T00:23:16;16.80;99.90
17236;DHT22;8734;59.272;17.780;2023-09-19T00:25:46;16.80;99.90
17236;DHT22;8734;59.272;17.780;2023-09-19T00:28:15;16.80;99.90
17236;DHT22;8734;59.272;17.780;2023-09-19T00:30:46;16.80;99.90
17236;DHT22;8734;59.272;17.780;2023-09-19T00:33:17;16.90;99.90
17236;DHT22;8734;59.272;17.780;2023-09-19T00:35:50;16.90;99.90
17236;DHT22;8734;59.272;17.780;2023-09-19T00:38:19;16.90;99.90
17236;DHT22;8734;59.272;17.780;2023-09-19T00:40:50;16.90;99.90
17236;DHT22;8734;59.272;17.780;2023-09-19T00:43:19;16.90;99.90
17236;DHT22;8734;59.272;17.780;2023-09-19T00:45:51;16.90;99.90
17236;DHT22;8734;59.272;17.780;2023-09-19T00:48:21;16.90;99.90
17236;DHT22;8734;59.272;17.780;2023-09-19T00:50:50;16.90;99.90
17236;DHT22;8734;59.272;17.780;2023-09-19T00:53:21;17.00;99.90
17236;DHT22;8734;59.272;17.780;2023-09-19T00:55:51;17.00;99.90
17236;DHT22;8734;59.272;17.780;2023-09-19T00:58:19;17.00;99.90
17236;DHT22;8734;59.272;17.780;2023-09-19T01:00:50;17.00;99.90
17236;DHT22;8734;59.272;17.780;2023-09-19T01:03:20;17.00;99.90
17236;DHT22;8734;59.272;17.780;2023-09-19T01:05:50;17.00;99.90
17236;DHT22;8734;59.272;17.780;2023-09-19T01:08:18;17.10;99.90
17236;DHT22;8734;59.272;17.780;2023-09-19T01:10:52;17.10;99.90
17236;DHT22;8734;59.272;17.780;2023-09-19T01:13:29;17.10;99.90
17236;DHT22;8734;59.272;17.780;2023-09-19T01:16:10;17.10;99.90
17236;DHT22;8734;59.272;17.780;2023-09-19T01:18:49;17.10;99.90
17236;DHT22;8734;59.272;17.780;2023-09-19T01:21:26;17.20;99.90
17236;DHT22;8734;59.272;17.780;2023-09-19T01:24:22;17.20;99.90
17236;DHT22;8734;59.272;17.780;2023-09-19T01:27:12;17.20;99.90
17236;DHT22;8734;59.272;17.780;2023-09-19T01:29:47;17.20;99.90
17236;DHT22;8734;59.272;17.780;2023-09-19T01:32:21;17.20;99.90
17236;DHT22;8734;59.272;17.780;2023-09-19T01:34:54;17.20;99.90
17236;DHT22;8734;59.272;17.780;2023-09-19T01:37:24;17.20;99.90
17236;DHT22;8734;59.272;17.780;2023-09-19T01:39:57;17.20;99.90
17236;DHT22;8734;59.272;17.780;2023-09-19T01:42:44;17.20;99.90
17236;DHT22;8734;59.272;17.780;2023-09-19T01:45:17;17.20;99.90
17236;DHT22;8734;59.272;17.780;2023-09-19T01:47:52;17.30;99.90
17236;DHT22;8734;59.272;17.780;2023-09-19T01:50:29;17.30;99.90
17236;DHT22;8734;59.272;17.780;2023-09-19T01:53:04;17.30;99.90
17236;DHT22;8734;59.272;17.780;2023-09-19T01:55:40;17.40;99.90
17236;DHT22;8734;59.272;17.780;2023-09-19T01:58:15;17.40;99.90
17236;DHT22;8734;59.272;17.780;2023-09-19T02:00:44;17.40;99.90
17236;DHT22;8734;59.272;17.780;2023-09-19T02:03:16;17.40;99.90
17236;DHT22;8734;59.272;17.780;2023-09-19T02:05:49;17.40;99.90
17236;DHT22;8734;59.272;17.780;2023-09-19T02:08:19;17.40;99.90
17236;DHT22;8734;59.272;17.780;2023-09-19T02:10:47;17.30;99.90
17236;DHT22;8734;59.272;17.780;2023-09-19T02:13:16;17.40;99.90
17236;DHT22;8734;59.272;17.780;2023-09-19T02:15:46;17.40;99.90
17236;DHT22;8734;59.272;17.780;2023-09-19T02:18:16;17.30;99.90
17236;DHT22;8734;59.272;17.780;2023-09-19T02:20:45;17.30;99.90
17236;DHT22;8734;59.272;17.780;2023-09-19T02:23:14;17.20;99.90
17236;DHT22;8734;59.272;17.780;2023-09-19T02:25:51;17.20;99.90
17236;DHT22;8734;59.272;17.780;2023-09-19T02:28:20;17.20;99.90
17236;DHT22;8734;59.272;17.780;2023-09-19T02:30:49;17.30;99.90
17236;DHT22;8734;59.272;17.780;2023-09-19T02:33:19;17.30;99.90
17236;DHT22;8734;59.272;17.780;2023-09-19T02:35:47;17.30;99.90
17236;DHT22;8734;59.272;17.780;2023-09-19T02:38:16;17.40;99.90
17236;DHT22;8734;59.272;17.780;2023-09-19T02:40:48;17.40;99.90
17236;DHT22;8734;59.272;17.780;2023-09-19T02:43:16;17.40;99.90
17236;DHT22;8734;59.272;17.780;2023-09-19T02:45:45;17.30;99.90
17236;DHT22;8734;59.272;17.780;2023-09-19T02:48:16;17.30;99.90
17236;DHT22;8734;59.272;17.780;2023-09-19T02:50:49;17.30;99.90
17236;DHT22;8734;59.272;17.780;2023-09-19T02:53:18;17.30;99.90
17236;DHT22;8734;59.272;17.780;2023-09-19T02:55:46;17.30;99.90
17236;DHT22;8734;59.272;17.780;2023-09-19T02:58:15;17.40;99.90
17236;DHT22;8734;59.272;17.780;2023-09-19T03:00:45;17.30;99.90
17236;DHT22;8734;59.272;17.780;2023-09-19T03:03:15;17.40;99.90
17236;DHT22;8734;59.272;17.780;2023-09-19T03:05:44;17.40;99.90
17236;DHT22;8734;59.272;17.780;2023-09-19T03:08:15;17.40;99.90
17236;DHT22;8734;59.272;17.780;2023-09-19T03:10:46;17.40;99.90
17236;DHT22;8734;59.272;17.780;2023-09-19T03:13:14;17.40;99.90
17236;DHT22;8734;59.272;17.780;2023-09-19T03:15:43;17.40;99.90
17236;DHT22;8734;59.272;17.780;2023-09-19T03:18:14;17.40;99.90
17236;DHT22;8734;59.272;17.780;2023-09-19T03:20:42;17.30;99.90
17236;DHT22;8734;59.272;17.780;2023-09-19T03:23:11;17.30;99.90
17236;DHT22;8734;59.272;17.780;2023-09-19T03:25:41;17.30;99.90
17236;DHT22;8734;59.272;17.780;2023-09-19T03:28:10;17.30;99.90
17236;DHT22;8734;59.272;17.780;2023-09-19T03:30:38;17.30;99.90
17236;DHT22;8734;59.272;17.780;2023-09-19T03:33:07;17.30;99.90
17236;DHT22;8734;59.272;17.780;2023-09-19T03:35:39;17.30;99.90
17236;DHT22;8734;59.272;17.780;2023-09-19T03:38:07;17.40;99.90
17236;DHT22;8734;59.272;17.780;2023-09-19T03:40:36;17.50;99.90
17236;DHT22;8734;59.272;17.780;2023-09-19T03:43:06;17.40;99.90
17236;DHT22;8734;59.272;17.780;2023-09-19T03:45:34;17.50;99.90
17236;DHT22;8734;59.272;17.780;2023-09-19T03:48:08;17.50;99.90
17236;DHT22;8734;59.272;17.780;2023-09-19T03:50:36;17.60;99.90
17236;DHT22;8734;59.272;17.780;2023-09-19T03:53:05;17.60;99.90
17236;DHT22;8734;59.272;17.780;2023-09-19T03:55:34;17.60;99.90
17236;DHT22;8734;59.272;17.780;2023-09-19T03:58:03;17.60;99.90
17236;DHT22;8734;59.272;17.780;2023-09-19T04:00:32;17.50;99.90
17236;DHT22;8734;59.272;17.780;2023-09-19T04:03:05;17.60;99.90
17236;DHT22;8734;59.272;17.780;2023-09-19T04:05:34;17.50;99.90
17236;DHT22;8734;59.272;17.780;2023-09-19T04:08:03;17.50;99.90
17236;DHT22;8734;59.272;17.780;2023-09-19T04:10:32;17.50;99.90
17236;DHT22;8734;59.272;17.780;2023-09-19T04:13:00;17.50;99.90
17236;DHT22;8734;59.272;17.780;2023-09-19T04:15:28;17.50;99.90
17236;DHT22;8734;59.272;17.780;2023-09-19T04:17:58;17.50;99.90
17236;DHT22;8734;59.272;17.780;2023-09-19T04:20:26;17.50;99.90
17236;DHT22;8734;59.272;17.780;2023-09-19T04:22:55;17.40;99.90
17236;DHT22;8734;59.272;17.780;2023-09-19T04:25:23;17.50;99.90
17236;DHT22;8734;59.272;17.780;2023-09-19T04:27:54;17.50;99.90
17236;DHT22;8734;59.272;17.780;2023-09-19T04:30:23;17.50;99.90
17236;DHT22;8734;59.272;17.780;2023-09-19T04:32:51;17.50;99.90
17236;DHT22;8734;59.272;17.780;2023-09-19T04:35:21;17.50;99.90
17236;DHT22;8734;59.272;17.780;2023-09-19T04:37:50;17.50;99.90
17236;DHT22;8734;59.272;17.780;2023-09-19T04:40:19;17.40;99.90
17236;DHT22;8734;59.272;17.780;2023-09-19T04:42:53;17.40;99.90
17236;DHT22;8734;59.272;17.780;2023-09-19T04:45:23;17.40;99.90
17236;DHT22;8734;59.272;17.780;2023-09-19T04:47:53;17.40;99.90
17236;DHT22;8734;59.272;17.780;2023-09-19T04:50:23;17.50;99.90
17236;DHT22;8734;59.272;17.780;2023-09-19T04:52:53;17.50;99.90
17236;DHT22;8734;59.272;17.780;2023-09-19T04:55:22;17.50;99.90
17236;DHT22;8734;59.272;17.780;2023-09-19T04:57:51;17.50;99.90
17236;DHT22;8734;59.272;17.780;2023-09-19T05:00:21;17.50;99.90
17236;DHT22;8734;59.272;17.780;2023-09-19T05:02:51;17.40;99.90
17236;DHT22;8734;59.272;17.780;2023-09-19T05:05:19;17.40;99.90
17236;DHT22;8734;59.272;17.780;2023-09-19T05:07:50;17.50;99.90
17236;DHT22;8734;59.272;17.780;2023-09-19T05:10:21;17.50;99.90
17236;DHT22;8734;59.272;17.780;2023-09-19T05:12:53;17.50;99.90
17236;DHT22;8734;59.272;17.780;2023-09-19T05:15:21;17.50;99.90
17236;DHT22;8734;59.272;17.780;2023-09-19T05:17:50;17.50;99.90
17236;DHT22;8734;59.272;17.780;2023-09-19T05:20:22;17.60;99.90
17236;DHT22;8734;59.272;17.780;2023-09-19T05:23:02;17.60;99.90
17236;DHT22;8734;59.272;17.780;2023-09-19T05:25:35;17.70;99.90
17236;DHT22;8734;59.272;17.780;2023-09-19T05:28:06;17.70;99.90
17236;DHT22;8734;59.272;17.780;2023-09-19T05:30:35;17.70;99.90
17236;DHT22;8734;59.272;17.780;2023-09-19T05:33:05;17.70;99.90
17236;DHT22;8734;59.272;17.780;2023-09-19T05:35:34;17.70;99.90
17236;DHT22;8734;59.272;17.780;2023-09-19T05:38:05;17.70;99.90
17236;DHT22;8734;59.272;17.780;2023-09-19T05:40:36;17.70;99.90
17236;DHT22;8734;59.272;17.780;2023-09-19T05:43:05;17.80;99.90
17236;DHT22;8734;59.272;17.780;2023-09-19T05:45:33;17.80;99.90
17236;DHT22;8734;59.272;17.780;2023-09-19T05:48:08;17.80;99.90
17236;DHT22;8734;59.272;17.780;2023-09-19T05:50:37;17.80;99.90
17236;DHT22;8734;59.272;17.780;2023-09-19T05:53:07;17.80;99.90
17236;DHT22;8734;59.272;17.780;2023-09-19T05:55:35;17.80;99.90
17236;DHT22;8734;59.272;17.780;2023-09-19T05:58:03;17.90;99.90
17236;DHT22;8734;59.272;17.780;2023-09-19T06:00:32;17.90;99.90
17236;DHT22;8734;59.272;17.780;2023-09-19T06:03:02;18.00;99.90
17236;DHT22;8734;59.272;17.780;2023-09-19T06:05:31;18.10;99.90
17236;DHT22;8734;59.272;17.780;2023-09-19T06:08:00;18.10;99.90
17236;DHT22;8734;59.272;17.780;2023-09-19T06:10:36;18.10;99.90
17236;DHT22;8734;59.272;17.780;2023-09-19T06:13:04;18.10;99.90
17236;DHT22;8734;59.272;17.780;2023-09-19T06:15:33;18.10;99.90
17236;DHT22;8734;59.272;17.780;2023-09-19T06:18:03;18.10;99.90
17236;DHT22;8734;59.272;17.780;2023-09-19T06:20:32;18.10;99.90
17236;DHT22;8734;59.272;17.780;2023-09-19T06:23:03;18.10;99.90
17236;DHT22;8734;59.272;17.780;2023-09-19T06:25:31;18.10;99.90
17236;DHT22;8734;59.272;17.780;2023-09-19T06:28:01;18.10;99.90
17236;DHT22;8734;59.272;17.780;2023-09-19T06:30:32;18.10;99.90
17236;DHT22;8734;59.272;17.780;2023-09-19T06:33:01;18.20;99.90
17236;DHT22;8734;59.272;17.780;2023-09-19T06:35:32;18.20;99.90
17236;DHT22;8734;59.272;17.780;2023-09-19T06:38:02;18.20;99.90
17236;DHT22;8734;59.272;17.780;2023-09-19T06:40:31;18.20;99.90
17236;DHT22;8734;59.272;17.780;2023-09-19T06:43:03;18.20;99.90
17236;DHT22;8734;59.272;17.780;2023-09-19T06:45:32;18.20;99.90
17236;DHT22;8734;59.272;17.780;2023-09-19T06:48:00;18.20;99.90
17236;DHT22;8734;59.272;17.780;2023-09-19T06:50:30;18.20;99.90
17236;DHT22;8734;59.272;17.780;2023-09-19T06:53:00;18.20;99.90
17236;DHT22;8734;59.272;17.780;2023-09-19T06:55:29;18.20;99.90
17236;DHT22;8734;59.272;17.780;2023-09-19T06:57:59;18.20;99.90
17236;DHT22;8734;59.272;17.780;2023-09-19T07:00:29;18.20;99.90
17236;DHT22;8734;59.272;17.780;2023-09-19T07:03:00;18.20;99.90
17236;DHT22;8734;59.272;17.780;2023-09-19T07:05:32;18.20;99.90
17236;DHT22;8734;59.272;17.780;2023-09-19T07:08:00;18.20;99.90
17236;DHT22;8734;59.272;17.780;2023-09-19T07:10:29;18.20;99.90
17236;DHT22;8734;59.272;17.780;2023-09-19T07:12:58;18.20;99.90
17236;DHT22;8734;59.272;17.780;2023-09-19T07:15:26;18.20;99.90
17236;DHT22;8734;59.272;17.780;2023-09-19T07:17:56;18.20;99.90
17236;DHT22;8734;59.272;17.780;2023-09-19T07:20:24;18.20;99.90
17236;DHT22;8734;59.272;17.780;2023-09-19T07:22:54;18.20;99.90
17236;DHT22;8734;59.272;17.780;2023-09-19T07:25:22;18.20;99.90
17236;DHT22;8734;59.272;17.780;2023-09-19T07:27:55;18.20;99.90
17236;DHT22;8734;59.272;17.780;2023-09-19T07:30:23;18.20;99.90
17236;DHT22;8734;59.272;17.780;2023-09-19T07:32:52;18.20;99.90
17236;DHT22;8734;59.272;17.780;2023-09-19T07:35:22;18.20;99.90
17236;DHT22;8734;59.272;17.780;2023-09-19T07:37:50;18.20;99.90
17236;DHT22;8734;59.272;17.780;2023-09-19T07:40:19;18.20;99.90
17236;DHT22;8734;59.272;17.780;2023-09-19T07:42:48;18.20;99.90
17236;DHT22;8734;59.272;17.780;2023-09-19T07:45:17;18.20;99.90
17236;DHT22;8734;59.272;17.780;2023-09-19T07:47:46;18.30;99.90
17236;DHT22;8734;59.272;17.780;2023-09-19T07:50:15;18.30;99.90
17236;DHT22;8734;59.272;17.780;2023-09-19T07:52:48;18.30;99.90
17236;DHT22;8734;59.272;17.780;2023-09-19T07:55:18;18.30;99.90
17236;DHT22;8734;59.272;17.780;2023-09-19T07:57:47;18.30;99.90
17236;DHT22;8734;59.272;17.780;2023-09-19T08:00:16;18.30;99.90
17236;DHT22;8734;59.272;17.780;2023-09-19T08:02:44;18.40;99.90
17236;DHT22;8734;59.272;17.780;2023-09-19T08:05:17;18.40;99.90
17236;DHT22;8734;59.272;17.780;2023-09-19T08:07:47;18.30;99.90
17236;DHT22;8734;59.272;17.780;2023-09-19T08:10:16;18.30;99.90
17236;DHT22;8734;59.272;17.780;2023-09-19T08:12:47;18.20;99.90
17236;DHT22;8734;59.272;17.780;2023-09-19T08:15:17;18.20;99.90
17236;DHT22;8734;59.272;17.780;2023-09-19T08:17:47;18.30;99.90
17236;DHT22;8734;59.272;17.780;2023-09-19T08:20:16;18.30;99.90
17236;DHT22;8734;59.272;17.780;2023-09-19T08:22:49;18.30;99.90
17236;DHT22;8734;59.272;17.780;2023-09-19T08:25:20;18.30;99.90
17236;DHT22;8734;59.272;17.780;2023-09-19T08:27:49;18.30;99.90
17236;DHT22;8734;59.272;17.780;2023-09-19T08:30:19;18.30;99.90
17236;DHT22;8734;59.272;17.780;2023-09-19T08:32:56;18.40;99.90
17236;DHT22;8734;59.272;17.780;2023-09-19T08:35:25;18.40;99.90
17236;DHT22;8734;59.272;17.780;2023-09-19T08:37:55;18.50;99.90
17236;DHT22;8734;59.272;17.780;2023-09-19T08:40:24;18.50;99.90
17236;DHT22;8734;59.272;17.780;2023-09-19T08:42:57;18.60;99.90
17236;DHT22;8734;59.272;17.780;2023-09-19T08:45:26;18.70;99.90
17236;DHT22;8734;59.272;17.780;2023-09-19T08:48:02;18.80;99.90
17236;DHT22;8734;59.272;17.780;2023-09-19T08:50:37;18.80;99.90
17236;DHT22;8734;59.272;17.780;2023-09-19T08:53:11;18.80;99.90
17236;DHT22;8734;59.272;17.780;2023-09-19T08:55:43;18.80;99.90
17236;DHT22;8734;59.272;17.780;2023-09-19T08:58:16;18.90;99.90
17236;DHT22;8734;59.272;17.780;2023-09-19T09:00:53;19.10;99.90
17236;DHT22;8734;59.272;17.780;2023-09-19T09:03:23;19.50;99.90
17236;DHT22;8734;59.272;17.780;2023-09-19T09:05:51;19.70;99.90
17236;DHT22;8734;59.272;17.780;2023-09-19T09:08:22;19.70;99.90
17236;DHT22;8734;59.272;17.780;2023-09-19T09:10:51;19.50;99.90
17236;DHT22;8734;59.272;17.780;2023-09-19T09:13:19;19.40;99.90
17236;DHT22;8734;59.272;17.780;2023-09-19T09:15:48;19.30;99.90
17236;DHT22;8734;59.272;17.780;2023-09-19T09:18:17;19.20;99.90
17236;DHT22;8734;59.272;17.780;2023-09-19T09:20:46;19.10;99.90
17236;DHT22;8734;59.272;17.780;2023-09-19T09:23:15;19.10;99.90
17236;DHT22;8734;59.272;17.780;2023-09-19T09:25:52;19.30;99.90
17236;DHT22;8734;59.272;17.780;2023-09-19T09:28:25;19.50;99.90
17236;DHT22;8734;59.272;17.780;2023-09-19T09:30:55;19.90;99.90
17236;DHT22;8734;59.272;17.780;2023-09-19T09:33:25;20.10;99.90
17236;DHT22;8734;59.272;17.780;2023-09-19T09:35:56;19.90;99.90
17236;DHT22;8734;59.272;17.780;2023-09-19T09:38:28;19.80;99.90
17236;DHT22;8734;59.272;17.780;2023-09-19T09:41:00;19.80;99.90
17236;DHT22;8734;59.272;17.780;2023-09-19T09:43:35;19.90;99.90
17236;DHT22;8734;59.272;17.780;2023-09-19T09:46:11;19.90;99.90
17236;DHT22;8734;59.272;17.780;2023-09-19T09:48:58;19.80;99.90
17236;DHT22;8734;59.272;17.780;2023-09-19T09:51:45;19.70;99.90
17236;DHT22;8734;59.272;17.780;2023-09-19T09:54:16;19.60;99.90
17236;DHT22;8734;59.272;17.780;2023-09-19T09:56:55;19.50;99.90
17236;DHT22;8734;59.272;17.780;2023-09-19T09:59:46;19.60;99.90
17236;DHT22;8734;59.272;17.780;2023-09-19T10:02:15;20.20;99.90
17236;DHT22;8734;59.272;17.780;2023-09-19T10:04:50;20.50;99.90
17236;DHT22;8734;59.272;17.780;2023-09-19T10:07:28;20.60;99.90
17236;DHT22;8734;59.272;17.780;2023-09-19T10:10:00;20.40;99.90
17236;DHT22;8734;59.272;17.780;2023-09-19T10:12:43;20.30;99.90
17236;DHT22;8734;59.272;17.780;2023-09-19T10:15:14;20.30;99.90
17236;DHT22;8734;59.272;17.780;2023-09-19T10:17:44;20.30;99.90
17236;DHT22;8734;59.272;17.780;2023-09-19T10:20:14;20.60;99.90
17236;DHT22;8734;59.272;17.780;2023-09-19T10:23:00;20.70;99.90
17236;DHT22;8734;59.272;17.780;2023-09-19T10:25:29;20.60;99.90
17236;DHT22;8734;59.272;17.780;2023-09-19T10:28:00;20.90;99.90
17236;DHT22;8734;59.272;17.780;2023-09-19T10:30:31;20.90;99.90
17236;DHT22;8734;59.272;17.780;2023-09-19T10:33:02;21.30;99.90
17236;DHT22;8734;59.272;17.780;2023-09-19T10:35:33;21.00;99.90
17236;DHT22;8734;59.272;17.780;2023-09-19T10:38:02;20.80;99.90
17236;DHT22;8734;59.272;17.780;2023-09-19T10:40:33;20.60;99.90
17236;DHT22;8734;59.272;17.780;2023-09-19T10:43:05;20.40;99.90
17236;DHT22;8734;59.272;17.780;2023-09-19T10:45:35;20.30;99.90
17236;DHT22;8734;59.272;17.780;2023-09-19T10:48:06;20.10;99.90
17236;DHT22;8734;59.272;17.780;2023-09-19T10:50:44;19.90;99.90
17236;DHT22;8734;59.272;17.780;2023-09-19T10:53:14;19.80;99.90
17236;DHT22;8734;59.272;17.780;2023-09-19T10:58:28;19.70;99.90
17236;DHT22;8734;59.272;17.780;2023-09-19T11:00:58;19.80;99.90
17236;DHT22;8734;59.272;17.780;2023-09-19T11:03:39;19.80;99.90
17236;DHT22;8734;59.272;17.780;2023-09-19T11:06:12;19.80;99.90
17236;DHT22;8734;59.272;17.780;2023-09-19T11:09:00;19.80;99.90
17236;DHT22;8734;59.272;17.780;2023-09-19T11:11:50;19.90;99.90
17236;DHT22;8734;59.272;17.780;2023-09-19T11:14:41;19.90;99.90
17236;DHT22;8734;59.272;17.780;2023-09-19T11:17:33;19.90;99.90
17236;DHT22;8734;59.272;17.780;2023-09-19T11:20:24;20.00;99.90
17236;DHT22;8734;59.272;17.780;2023-09-19T11:23:18;20.50;99.90
17236;DHT22;8734;59.272;17.780;2023-09-19T11:25:50;20.80;99.90
17236;DHT22;8734;59.272;17.780;2023-09-19T11:28:33;20.90;99.90
17236;DHT22;8734;59.272;17.780;2023-09-19T11:34:44;20.90;99.90
17236;DHT22;8734;59.272;17.780;2023-09-19T11:40:46;21.30;99.90
17236;DHT22;8734;59.272;17.780;2023-09-19T11:43:31;21.50;99.90
17236;DHT22;8734;59.272;17.780;2023-09-19T11:46:08;21.20;99.90
17236;DHT22;8734;59.272;17.780;2023-09-19T11:48:41;21.20;99.90
17236;DHT22;8734;59.272;17.780;2023-09-19T11:51:26;21.00;99.90
17236;DHT22;8734;59.272;17.780;2023-09-19T11:53:56;20.80;99.90
17236;DHT22;8734;59.272;17.780;2023-09-19T11:56:27;20.60;99.90
17236;DHT22;8734;59.272;17.780;2023-09-19T11:58:56;20.50;99.90
17236;DHT22;8734;59.272;17.780;2023-09-19T12:01:29;20.40;99.90
17236;DHT22;8734;59.272;17.780;2023-09-19T12:04:00;20.40;99.90
17236;DHT22;8734;59.272;17.780;2023-09-19T12:06:30;20.40;99.90
17236;DHT22;8734;59.272;17.780;2023-09-19T12:08:59;20.30;99.90
17236;DHT22;8734;59.272;17.780;2023-09-19T12:11:30;20.20;99.90
17236;DHT22;8734;59.272;17.780;2023-09-19T12:14:01;20.30;99.90
17236;DHT22;8734;59.272;17.780;2023-09-19T12:16:31;20.50;99.90
17236;DHT22;8734;59.272;17.780;2023-09-19T12:19:19;20.50;99.90
17236;DHT22;8734;59.272;17.780;2023-09-19T12:21:59;20.60;99.90
17236;DHT22;8734;59.272;17.780;2023-09-19T12:24:32;20.60;99.90
17236;DHT22;8734;59.272;17.780;2023-09-19T12:27:05;20.70;99.90
17236;DHT22;8734;59.272;17.780;2023-09-19T12:29:43;20.70;99.90
17236;DHT22;8734;59.272;17.780;2023-09-19T12:32:12;20.40;99.90
17236;DHT22;8734;59.272;17.780;2023-09-19T12:34:50;20.10;99.90
17236;DHT22;8734;59.272;17.780;2023-09-19T12:37:21;19.90;99.90
17236;DHT22;8734;59.272;17.780;2023-09-19T12:40:04;19.80;99.90
17236;DHT22;8734;59.272;17.780;2023-09-19T12:42:42;19.80;99.90
17236;DHT22;8734;59.272;17.780;2023-09-19T12:45:11;19.90;99.90
17236;DHT22;8734;59.272;17.780;2023-09-19T12:48:19;19.90;99.90
17236;DHT22;8734;59.272;17.780;2023-09-19T12:51:02;19.80;99.90
17236;DHT22;8734;59.272;17.780;2023-09-19T12:53:36;19.70;99.90
17236;DHT22;8734;59.272;17.780;2023-09-19T12:56:09;19.60;99.90
17236;DHT22;8734;59.272;17.780;2023-09-19T12:58:49;19.60;99.90
17236;DHT22;8734;59.272;17.780;2023-09-19T13:01:18;19.40;99.90
17236;DHT22;8734;59.272;17.780;2023-09-19T13:03:46;19.40;99.90
17236;DHT22;8734;59.272;17.780;2023-09-19T13:06:38;19.40;99.90
17236;DHT22;8734;59.272;17.780;2023-09-19T13:09:11;19.30;99.90
17236;DHT22;8734;59.272;17.780;2023-09-19T13:11:42;19.40;99.90
17236;DHT22;8734;59.272;17.780;2023-09-19T13:14:16;19.40;99.90
17236;DHT22;8734;59.272;17.780;2023-09-19T13:16:59;19.50;99.90
17236;DHT22;8734;59.272;17.780;2023-09-19T13:19:40;19.50;99.90
17236;DHT22;8734;59.272;17.780;2023-09-19T13:22:39;19.40;99.90
17236;DHT22;8734;59.272;17.780;2023-09-19T13:25:12;19.40;99.90
17236;DHT22;8734;59.272;17.780;2023-09-19T13:27:47;19.30;99.90
17236;DHT22;8734;59.272;17.780;2023-09-19T13:30:18;19.30;99.90
17236;DHT22;8734;59.272;17.780;2023-09-19T13:32:47;19.20;99.90
17236;DHT22;8734;59.272;17.780;2023-09-19T13:35:16;19.10;99.90
17236;DHT22;8734;59.272;17.780;2023-09-19T13:37:46;19.00;99.90
17236;DHT22;8734;59.272;17.780;2023-09-19T13:40:17;18.90;99.90
17236;DHT22;8734;59.272;17.780;2023-09-19T13:42:45;18.80;99.90
17236;DHT22;8734;59.272;17.780;2023-09-19T13:45:14;18.50;99.90
17236;DHT22;8734;59.272;17.780;2023-09-19T13:47:44;18.10;99.90
17236;DHT22;8734;59.272;17.780;2023-09-19T13:50:13;17.50;99.90
17236;DHT22;8734;59.272;17.780;2023-09-19T13:52:41;17.10;99.90
17236;DHT22;8734;59.272;17.780;2023-09-19T13:55:09;16.70;99.90
17236;DHT22;8734;59.272;17.780;2023-09-19T13:57:43;16.50;99.90
17236;DHT22;8734;59.272;17.780;2023-09-19T14:00:12;16.40;99.90
17236;DHT22;8734;59.272;17.780;2023-09-19T14:02:43;16.40;99.90
17236;DHT22;8734;59.272;17.780;2023-09-19T14:05:13;16.40;99.90
17236;DHT22;8734;59.272;17.780;2023-09-19T14:07:43;16.50;99.90
17236;DHT22;8734;59.272;17.780;2023-09-19T14:10:12;16.50;99.90
17236;DHT22;8734;59.272;17.780;2023-09-19T14:12:46;16.60;99.90
17236;DHT22;8734;59.272;17.780;2023-09-19T14:15:14;16.60;99.90
17236;DHT22;8734;59.272;17.780;2023-09-19T14:17:43;16.70;99.90
17236;DHT22;8734;59.272;17.780;2023-09-19T14:20:12;16.70;99.90
17236;DHT22;8734;59.272;17.780;2023-09-19T14:22:41;16.70;99.90
17236;DHT22;8734;59.272;17.780;2023-09-19T14:25:10;16.70;99.90
17236;DHT22;8734;59.272;17.780;2023-09-19T14:27:38;16.70;99.90
17236;DHT22;8734;59.272;17.780;2023-09-19T14:30:09;16.70;99.90
17236;DHT22;8734;59.272;17.780;2023-09-19T14:32:37;16.70;99.90
17236;DHT22;8734;59.272;17.780;2023-09-19T14:35:07;16.70;99.90
17236;DHT22;8734;59.272;17.780;2023-09-19T14:37:36;16.70;99.90
17236;DHT22;8734;59.272;17.780;2023-09-19T14:40:08;16.80;99.90
17236;DHT22;8734;59.272;17.780;2023-09-19T14:42:39;16.80;99.90
17236;DHT22;8734;59.272;17.780;2023-09-19T14:45:10;17.10;99.90
17236;DHT22;8734;59.272;17.780;2023-09-19T14:47:38;17.40;99.90
17236;DHT22;8734;59.272;17.780;2023-09-19T14:50:07;19.60;99.90
17236;DHT22;8734;59.272;17.780;2023-09-19T14:52:36;22.40;99.90
17236;DHT22;8734;59.272;17.780;2023-09-19T14:55:05;22.80;99.90
17236;DHT22;8734;59.272;17.780;2023-09-19T14:57:35;20.20;99.90
17236;DHT22;8734;59.272;17.780;2023-09-19T15:00:09;18.60;99.90
17236;DHT22;8734;59.272;17.780;2023-09-19T15:02:39;17.90;99.90
17236;DHT22;8734;59.272;17.780;2023-09-19T15:05:08;17.30;99.90
17236;DHT22;8734;59.272;17.780;2023-09-19T15:07:38;17.00;99.90
17236;DHT22;8734;59.272;17.780;2023-09-19T15:10:07;16.90;99.90
17236;DHT22;8734;59.272;17.780;2023-09-19T15:12:37;16.80;99.90
17236;DHT22;8734;59.272;17.780;2023-09-19T15:15:08;16.60;99.90
17236;DHT22;8734;59.272;17.780;2023-09-19T15:17:37;18.00;99.90
17236;DHT22;8734;59.272;17.780;2023-09-19T15:20:06;19.90;99.90
17236;DHT22;8734;59.272;17.780;2023-09-19T15:22:35;20.50;99.90
17236;DHT22;8734;59.272;17.780;2023-09-19T15:25:04;20.30;99.90
17236;DHT22;8734;59.272;17.780;2023-09-19T15:27:32;19.70;99.90
17236;DHT22;8734;59.272;17.780;2023-09-19T15:30:04;18.70;99.90
17236;DHT22;8734;59.272;17.780;2023-09-19T15:32:35;18.20;99.90
17236;DHT22;8734;59.272;17.780;2023-09-19T15:35:04;17.60;99.90
17236;DHT22;8734;59.272;17.780;2023-09-19T15:37:32;16.90;99.90
17236;DHT22;8734;59.272;17.780;2023-09-19T15:40:01;16.50;99.90
17236;DHT22;8734;59.272;17.780;2023-09-19T15:42:30;16.30;99.90
17236;DHT22;8734;59.272;17.780;2023-09-19T15:44:58;16.20;99.90
17236;DHT22;8734;59.272;17.780;2023-09-19T15:47:26;15.90;99.90
17236;DHT22;8734;59.272;17.780;2023-09-19T15:49:57;15.80;99.90
17236;DHT22;8734;59.272;17.780;2023-09-19T15:52:26;15.60;99.90
17236;DHT22;8734;59.272;17.780;2023-09-19T15:54:54;15.50;99.90
17236;DHT22;8734;59.272;17.780;2023-09-19T15:57:22;15.40;99.90
17236;DHT22;8734;59.272;17.780;2023-09-19T15:59:51;15.30;99.90
17236;DHT22;8734;59.272;17.780;2023-09-19T16:02:20;15.20;99.90
17236;DHT22;8734;59.272;17.780;2023-09-19T16:04:48;15.20;99.90
17236;DHT22;8734;59.272;17.780;2023-09-19T16:07:18;15.10;99.90